Spring Mountain Youth Camp, Nevada Weather observations

Data are for 60 minute period ending at time listed.
 Day   Time   Solar   Ave.   Ave.  Ave.  Vector  Max.   Baro.   Total    
  of    of     Rad.   Air    Rel.  Wind   Wind   Wind  Press.  Precip.   
Year   Day            Temp.  Hum.  Speed  Dir.   Gust                    
2014   (PST)  Kw/m2    F      %     mph   deg.    mph    mb.     in.     
-------------------------------------------------------------------------
 274    9:00   0.54   50.6    46    3.2   156     9.9   790.7    0.00 
 274   10:00   0.71   51.9    43    3.6   153    12.0   791.0    0.00 
 274   11:00   0.82   53.3    40    3.8   157    11.9   791.0    0.00 
 274   12:00   0.86   54.0    38    4.3   150    15.6   791.1    0.00 
 274   13:00   0.84   55.0    33    4.5   162    15.0   790.9    0.00 
 274   14:00   0.75   56.0    28    4.3   160    15.9   791.0    0.00 
 274   15:00   0.61   55.3    22    4.4   153    11.8   791.3    0.00 
 274   16:00   0.42   53.1    18    2.7   155    10.0   791.4    0.00 
 274   17:00   0.19   49.9    19    2.3   139    11.5   791.6    0.00 
 274   18:00   0.01   44.6    21    1.2    67     5.5   791.7    0.00 
 274   19:00   0.00   42.2    24    1.3    62     5.0   791.9    0.00 
 274   20:00   0.00   40.4    28    1.4   136     5.8   792.3    0.00 
 274   21:00   0.00   39.2    28    1.9   157     5.4   792.5    0.00 
 274   22:00   0.00   38.6    29    2.2   150     5.9   792.7    0.00 
 274   23:00   0.00   38.0    32    2.1   151     6.7   792.8    0.00 
 275    0:00   0.00   37.6    37    1.4   151     4.5   793.0    0.00 
 275    1:00   0.00   37.2    38    1.5   147     5.1   793.2    0.00 
 275    2:00   0.00   36.8    38    1.0   139     4.2   793.4    0.00 
 275    3:00   0.00   37.9    32    2.0     8     5.7   793.4    0.00 
 275    4:00   0.00   36.9    36    2.9    10     6.7   793.6    0.00 
 275    5:00   0.00   38.9    24    2.1     9     7.1   793.9    0.00 
 275    6:00   0.00   39.7    16    0.9     3     4.3   794.2    0.00 
 275    7:00   0.09   42.7    13    1.4   360     4.7   794.6    0.00 
 275    8:00   0.36   52.1    11    1.4     8     4.9   794.9    0.00 

Return to Spring Mountain Youth Camp graphs page.


Western Regional Climate Center,wrcc@dri.edu